Map

Track Data

SID SEASON NUMBER BASIN SUBBASIN NAME ISO_TIME NATURE LAT LON WMO_WIND WMO_PRES WMO_AGENCY TRACK_TYPE DIST2LAND LANDFALL IFLAG USA_AGENCY USA_ATCF_ID USA_LAT USA_LON USA_RECORD USA_STATUS USA_WIND USA_PRES USA_SSHS USA_R34_NE USA_R34_SE USA_R34_SW USA_R34_NW USA_R50_NE USA_R50_SE USA_R50_SW USA_R50_NW USA_R64_NE USA_R64_SE USA_R64_SW USA_R64_NW USA_POCI USA_ROCI USA_RMW USA_EYE TOKYO_LAT TOKYO_LON TOKYO_GRADE TOKYO_WIND TOKYO_PRES TOKYO_R50_DIR TOKYO_R50_LONG TOKYO_R50_SHORT TOKYO_R30_DIR TOKYO_R30_LONG TOKYO_R30_SHORT TOKYO_LAND CMA_LAT CMA_LON CMA_CAT CMA_WIND CMA_PRES HKO_LAT HKO_LON HKO_CAT HKO_WIND HKO_PRES NEWDELHI_LAT NEWDELHI_LON NEWDELHI_GRADE NEWDELHI_WIND NEWDELHI_PRES NEWDELHI_CI NEWDELHI_DP NEWDELHI_POCI REUNION_LAT REUNION_LON REUNION_TYPE REUNION_WIND REUNION_PRES REUNION_TNUM REUNION_CI REUNION_RMW REUNION_R34_NE REUNION_R34_SE REUNION_R34_SW REUNION_R34_NW REUNION_R50_NE REUNION_R50_SE REUNION_R50_SW REUNION_R50_NW REUNION_R64_NE REUNION_R64_SE REUNION_R64_SW REUNION_R64_NW BOM_LAT BOM_LON BOM_TYPE BOM_WIND BOM_PRES BOM_TNUM BOM_CI BOM_RMW BOM_R34_NE BOM_R34_SE BOM_R34_SW BOM_R34_NW BOM_R50_NE BOM_R50_SE BOM_R50_SW BOM_R50_NW BOM_R64_NE BOM_R64_SE BOM_R64_SW BOM_R64_NW BOM_ROCI BOM_POCI BOM_EYE BOM_POS_METHOD BOM_PRES_METHOD NADI_LAT NADI_LON NADI_CAT NADI_WIND NADI_PRES WELLINGTON_LAT WELLINGTON_LON WELLINGTON_WIND WELLINGTON_PRES DS824_LAT DS824_LON DS824_STAGE DS824_WIND DS824_PRES TD9636_LAT TD9636_LON TD9636_STAGE TD9636_WIND TD9636_PRES TD9635_LAT TD9635_LON TD9635_WIND TD9635_PRES TD9635_ROCI NEUMANN_LAT NEUMANN_LON NEUMANN_CLASS NEUMANN_WIND NEUMANN_PRES MLC_LAT MLC_LON MLC_CLASS MLC_WIND MLC_PRES USA_GUST BOM_GUST BOM_GUST_PER REUNION_GUST REUNION_GUST_PER USA_SEAHGT USA_SEARAD_NE USA_SEARAD_SE USA_SEARAD_SW USA_SEARAD_NW STORM_SPEED STORM_DIR
1976120N12093 1976 48 NI BB NOT_NAMED 1976-04-29 00:00:00 TS 12.3000 92.5000 main 442 422 O________OO___ jtwc_io IO011976 12.3000 92.5000 -1 12.3000 92.5000 TC 12.3000 92.5000 1 4 0
1976120N12093 1976 48 NI BB NOT_NAMED 1976-04-29 03:00:00 TS 12.5066 92.5022 main 422 403 P________PP___ IO011976 12.5075 92.4900 -1 12.5075 92.4900 TC 12.5047 92.5265 1 4 3
1976120N12093 1976 48 NI BB NOT_NAMED 1976-04-29 06:00:00 TS 12.6992 92.5175 main 403 378 O________OP___ jtwc_io IO011976 12.7000 92.5000 -1 12.7000 92.5000 TC 12.6975 92.5524 1 4 8
1976120N12093 1976 48 NI BB NOT_NAMED 1976-04-29 09:00:00 TS 12.8655 92.5540 main 378 368 P________PP___ IO011976 12.8650 92.5425 -1 12.8650 92.5425 TC 12.8666 92.5771 1 3 15
1976120N12093 1976 48 NI BB NOT_NAMED 1976-04-29 12:00:00 TS 13.0000 92.6000 main 368 359 O________OO___ jtwc_io IO011976 13.0000 92.6000 -1 13.0000 92.6000 TC 13.0000 92.6000 1 3 21
1976120N12093 1976 48 NI BB NOT_NAMED 1976-04-29 15:00:00 TS 13.1027 92.6409 main 359 343 P________PP___ IO011976 13.1075 92.6500 -1 13.1075 92.6500 TC 13.0931 92.6227 1 2 22
1976120N12093 1976 48 NI BB NOT_NAMED 1976-04-29 18:00:00 TS 13.1900 92.6851 main 343 334 O________OP___ jtwc_io IO011976 13.2000 92.7000 XX 35 -5 13.2000 92.7000 TC 35 13.1699 92.6553 1 2 24
1976120N12093 1976 48 NI BB NOT_NAMED 1976-04-29 21:00:00 TS 13.2723 92.7268 main 334 319 P________PP___ IO011976 13.2775 92.7351 XX 37 -5 13.2775 92.7351 TC 37 13.2618 92.7103 1 2 28
1976120N12093 1976 48 NI BB NOT_NAMED 1976-04-30 00:00:00 TS 13.4000 92.8000 main 319 294 O________OO___ jtwc_io IO011976 13.4000 92.8000 XX 40 -5 13.4000 92.8000 TC 40 13.4000 92.8000 1 4 30
1976120N12093 1976 48 NI BB NOT_NAMED 1976-04-30 03:00:00 TS 13.6243 92.9380 main 294 254 P________PP___ IO011976 13.6200 92.9275 XX 42 -5 13.6200 92.9275 TC 42 13.6329 92.9590 1 6 31
1976120N12093 1976 48 NI BB NOT_NAMED 1976-04-30 06:00:00 TS 13.9042 93.1165 main 254 214 O________OP___ jtwc_io IO011976 13.9000 93.1000 XX 45 -5 13.9000 93.1000 TC 45 13.9127 93.1495 1 7 33
1976120N12093 1976 48 NI BB NOT_NAMED 1976-04-30 09:00:00 TS 14.2087 93.3234 main 214 174 P________PP___ IO011976 14.2075 93.3149 XX 45 -5 14.2075 93.3149 TC 45 14.2111 93.3403 1 7 32
1976120N12093 1976 48 NI BB NOT_NAMED 1976-04-30 12:00:00 TS 14.5000 93.5000 main 174 150 O________OO___ jtwc_io IO011976 14.5000 93.5000 XX 45 -5 14.5000 93.5000 TC 45 14.5000 93.5000 2 6 26
1976120N12093 1976 48 NI BB NOT_NAMED 1976-04-30 15:00:00 TS 14.7086 93.5758 main 150 132 P________PP___ IO011976 14.7075 93.5726 XX 47 -5 14.7075 93.5726 TC 47 14.7109 93.5822 2 4 14
1976120N12093 1976 48 NI BB NOT_NAMED 1976-04-30 18:00:00 TS 14.9041 93.6102 main 132 116 O________OP___ jtwc_io IO011976 14.9000 93.6000 XX 50 -5 14.9000 93.6000 TC 50 14.9124 93.6305 2 4 9
1976120N12093 1976 48 NI BB NOT_NAMED 1976-04-30 21:00:00 TS 15.1242 93.6495 main 116 85 P________PP___ IO011976 15.1200 93.6426 XX 50 -5 15.1200 93.6426 TC 50 15.1328 93.6635 2 5 10
1976120N12093 1976 48 NI BB NOT_NAMED 1976-05-01 00:00:00 TS 15.4000 93.7000 main 85 48 O________OO___ jtwc_io IO011976 15.4000 93.7000 XX 50 -5 15.4000 93.7000 TC 50 15.4000 93.7000 2 7 12
1976120N12093 1976 48 NI BB NOT_NAMED 1976-05-01 03:00:00 TS 15.7764 93.7905 main 48 33 P________PP___ IO011976 15.7775 93.7999 XX 45 -5 15.7775 93.7999 TC 45 15.7741 93.7717 2 8 12
1976120N12093 1976 48 NI BB NOT_NAMED 1976-05-01 06:00:00 TS 16.1975 93.8833 main 39 39 O________OP___ jtwc_io IO011976 16.2000 93.9000 XX 40 -5 16.2000 93.9000 TC 40 16.1925 93.8498 2 9 10
1976120N12093 1976 48 NI BB NOT_NAMED 1976-05-01 09:00:00 TS 16.6199 93.9477 main 44 33 P________PP___ IO011976 16.6225 93.9576 XX 37 -5 16.6225 93.9576 TC 37 16.6147 93.9280 2 8 8
1976120N12093 1976 48 NI BB NOT_NAMED 1976-05-01 12:00:00 TS 17.0000 94.0000 main 44 44 O________OO___ jtwc_io IO011976 17.0000 94.0000 XX 35 -5 17.0000 94.0000 TC 35 17.0000 94.0000 4 7 8
1976120N12093 1976 48 NI BB NOT_NAMED 1976-05-01 15:00:00 TS 17.2793 94.0485 main 54 43 P________PP___ IO011976 17.2725 94.0500 XX 37 -5 17.2725 94.0500 TC 37 17.2931 94.0453 4 5 9
1976120N12093 1976 48 NI BB NOT_NAMED 1976-05-01 18:00:00 TS 17.5150 94.0951 main 53 43 O________OP___ jtwc_io IO011976 17.5000 94.1000 XX 40 -5 17.5000 94.1000 TC 40 17.5449 94.0854 4 5 10
1976120N12093 1976 48 NI BB NOT_NAMED 1976-05-01 21:00:00 TS 17.7581 94.1393 main 42 24 P________PP___ IO011976 17.7500 94.1425 XX 42 -5 17.7500 94.1425 TC 42 17.7743 94.1328 4 5 11
1976120N12093 1976 48 NI BB NOT_NAMED 1976-05-02 00:00:00 TS 18.0000 94.2000 main 24 0 O________OO___ jtwc_io IO011976 18.0000 94.2000 XX 45 -5 18.0000 94.2000 TC 45 18.0000 94.2000 4 5 16
1976120N12093 1976 48 NI BB NOT_NAMED 1976-05-02 03:00:00 TS 18.2554 94.2884 main 10 0 P________PP___ IO011976 18.2500 94.2850 XX 45 -5 18.2500 94.2850 TC 45 18.2662 94.2952 4 5 21
1976120N12093 1976 48 NI BB NOT_NAMED 1976-05-02 06:00:00 TS 18.5100 94.4041 main 0 0 O________OP___ jtwc_io IO011976 18.5000 94.4000 XX 45 -5 18.5000 94.4000 TC 45 18.5300 94.4124 4 6 26
1976120N12093 1976 48 NI BB NOT_NAMED 1976-05-02 09:00:00 TS 18.7646 94.5445 main 0 0 P________PP___ IO011976 18.7575 94.5425 XX 40 -5 18.7575 94.5425 TC 40 18.7787 94.5484 4 6 30
1976120N12093 1976 48 NI BB NOT_NAMED 1976-05-02 12:00:00 TS 19.0000 94.7000 main 0 0 O________OO___ jtwc_io IO011976 19.0000 94.7000 XX 35 -5 19.0000 94.7000 TC 35 19.0000 94.7000 2 5 33
1976120N12093 1976 48 NI BB NOT_NAMED 1976-05-02 15:00:00 TS 19.2100 94.8497 main 0 0 P________PP___ IO011976 19.2225 94.8425 XX -5 19.2225 94.8425 TC 19.1851 94.8640 2 5 38
1976120N12093 1976 48 NI BB NOT_NAMED 1976-05-02 18:00:00 TS 19.3801 95.0125 main 0 0 O________OP___ jtwc_io IO011976 19.4000 95.0000 -1 19.4000 95.0000 TC 19.3402 95.0374 2 4 48
1976120N12093 1976 48 NI BB NOT_NAMED 1976-05-02 21:00:00 TS 19.5034 95.1990 main 0 0 P________PP___ IO011976 19.5176 95.1900 -1 19.5176 95.1900 TC 19.4751 95.2171 2 4 59
1976120N12093 1976 48 NI BB NOT_NAMED 1976-05-03 00:00:00 TS 19.6000 95.4000 main 0 O________OO___ jtwc_io IO011976 19.6000 95.4000 -1 19.6000 95.4000 TC 19.6000 95.4000 6 4 63

About IBTrACS Database

This database is a web-friendly format of International Best Track Archive for Climate Stewardship (IBTrACS), a global best track data archive curated by NOAA dating back to 1842.

Updated: 2021-10-19